Time,TemperatureF,DewpointF,PressureIn,WindDirection,WindDirectionDegrees,WindSpeedMPH,WindSpeedGustMPH,Humidity,HourlyPrecipIn,Conditions,Clouds,dailyrainin,SoftwareType,DateUTC
2013-02-20 00:00:00,31.0,18.0,30.18,SE,127,0.0,6.0,58,0.00,,---,0.44,VWS V14.00,2013-02-20 05:00:00,
2013-02-20 00:05:00,31.0,19.1,30.18,SE,135,7.0,9.0,61,0.00,,---,0.44,VWS V14.00,2013-02-20 05:05:00,
2013-02-20 00:10:00,30.9,19.8,30.17,ENE,59,1.0,3.0,63,0.00,,---,0.00,VWS V14.00,2013-02-20 05:10:00,
2013-02-20 00:15:00,30.7,19.2,30.18,ESE,119,2.0,3.0,62,0.00,,---,0.00,VWS V14.00,2013-02-20 05:15:00,
2013-02-20 00:20:00,30.5,18.3,30.18,SE,132,0.0,7.0,60,0.00,,---,0.00,VWS V14.00,2013-02-20 05:20:00,
2013-02-20 00:25:00,30.4,19.0,30.19,SW,226,2.0,7.0,62,0.00,,---,0.00,VWS V14.00,2013-02-20 05:25:00,
2013-02-20 00:30:00,30.3,17.7,30.19,SSE,153,1.0,9.0,59,0.00,,---,0.00,VWS V14.00,2013-02-20 05:30:00,
2013-02-20 00:35:00,30.2,19.1,30.19,South,171,3.0,9.0,63,0.00,,---,0.00,VWS V14.00,2013-02-20 05:35:00,
2013-02-20 00:40:00,30.1,17.9,30.18,East,81,0.0,5.0,60,0.00,,---,0.00,VWS V14.00,2013-02-20 05:40:00,
2013-02-20 00:45:00,30.1,19.0,30.18,SSE,167,3.0,5.0,63,0.00,,---,0.00,VWS V14.00,2013-02-20 05:45:00,
2013-02-20 00:50:00,29.9,18.1,30.18,SE,134,4.0,5.0,61,0.00,,---,0.00,VWS V14.00,2013-02-20 05:50:00,
2013-02-20 00:55:00,29.8,18.8,30.18,ESE,117,0.0,7.0,63,0.00,,---,0.00,VWS V14.00,2013-02-20 05:55:00,
2013-02-20 01:00:00,29.6,17.8,30.18,ESE,123,0.0,7.0,61,0.00,,---,0.00,VWS V14.00,2013-02-20 06:00:00,
2013-02-20 01:05:00,29.4,17.6,30.18,ESE,123,0.0,7.0,61,0.00,,---,0.00,VWS V14.00,2013-02-20 06:05:00,
2013-02-20 01:10:00,29.3,17.5,30.18,East,101,0.0,2.0,61,0.00,,---,0.00,VWS V14.00,2013-02-20 06:10:00,
2013-02-20 01:15:00,29.2,17.4,30.18,East,101,2.0,2.0,61,0.00,,---,0.00,VWS V14.00,2013-02-20 06:15:00,
2013-02-20 01:20:00,29.2,17.4,30.18,NNE,12,0.0,3.0,61,0.00,,---,0.00,VWS V14.00,2013-02-20 06:20:00,
2013-02-20 01:25:00,29.1,17.0,30.18,North,11,1.0,4.0,60,0.00,,---,0.00,VWS V14.00,2013-02-20 06:25:00,
2013-02-20 01:30:00,29.0,17.2,30.18,NNE,23,0.0,4.0,61,0.00,,---,0.00,VWS V14.00,2013-02-20 06:30:00,
2013-02-20 01:35:00,29.0,17.2,30.18,NNE,23,0.0,4.0,61,0.00,,---,0.00,VWS V14.00,2013-02-20 06:35:00,
2013-02-20 01:40:00,28.9,17.5,30.18,NW,310,2.0,3.0,62,0.00,,---,0.00,VWS V14.00,2013-02-20 06:40:00,
2013-02-20 01:45:00,28.7,17.7,30.18,SSE,162,0.0,4.0,63,0.00,,---,0.00,VWS V14.00,2013-02-20 06:45:00,
2013-02-20 01:50:00,28.6,17.6,30.18,South,169,0.0,5.0,63,0.00,,---,0.00,VWS V14.00,2013-02-20 06:50:00,
2013-02-20 01:55:00,28.4,17.1,30.18,South,184,4.0,5.0,62,0.00,,---,0.00,VWS V14.00,2013-02-20 06:55:00,
2013-02-20 02:00:00,28.4,16.7,30.18,SE,144,0.0,9.0,61,0.00,,---,0.00,VWS V14.00,2013-02-20 07:00:00,
2013-02-20 02:05:00,28.4,15.9,30.18,East,87,0.0,9.0,59,0.00,,---,0.00,VWS V14.00,2013-02-20 07:05:00,
2013-02-20 02:10:00,28.3,16.2,30.19,East,87,0.0,2.0,60,0.00,,---,0.00,VWS V14.00,2013-02-20 07:10:00,
2013-02-20 02:15:00,28.2,16.9,30.20,SSE,164,0.0,5.0,62,0.00,,---,0.00,VWS V14.00,2013-02-20 07:15:00,
2013-02-20 02:20:00,28.1,15.6,30.19,SSE,160,2.0,6.0,59,0.00,,---,0.00,VWS V14.00,2013-02-20 07:20:00,
2013-02-20 02:25:00,28.0,16.3,30.19,SSW,210,0.0,8.0,61,0.00,,---,0.00,VWS V14.00,2013-02-20 07:25:00,
2013-02-20 02:30:00,28.0,15.1,30.19,SSW,209,2.0,9.0,58,0.00,,---,0.00,VWS V14.00,2013-02-20 07:30:00,
2013-02-20 02:35:00,28.3,15.0,30.19,South,175,0.0,9.0,57,0.00,,---,0.00,VWS V14.00,2013-02-20 07:35:00,
2013-02-20 02:40:00,28.3,16.2,30.19,SE,141,0.0,6.0,60,0.00,,---,0.00,VWS V14.00,2013-02-20 07:40:00,
2013-02-20 02:45:00,28.2,15.7,30.19,SE,146,0.0,12.0,59,0.00,,---,0.00,VWS V14.00,2013-02-20 07:45:00,
2013-02-20 02:50:00,28.1,16.0,30.19,South,182,5.0,12.0,60,0.00,,---,0.00,VWS V14.00,2013-02-20 07:50:00,
2013-02-20 02:55:00,28.4,15.5,30.19,South,191,3.0,12.0,58,0.00,,---,0.00,VWS V14.00,2013-02-20 07:55:00,
2013-02-20 03:00:00,28.4,16.3,30.19,SW,230,3.0,12.0,60,0.00,,---,0.00,VWS V14.00,2013-02-20 08:00:00,
2013-02-20 03:05:00,28.5,15.2,30.19,SE,145,4.0,12.0,57,0.00,,---,0.00,VWS V14.00,2013-02-20 08:05:00,
2013-02-20 03:10:00,28.6,14.9,30.19,SSE,153,0.0,14.0,56,0.00,,---,0.00,VWS V14.00,2013-02-20 08:10:00,
2013-02-20 03:15:00,28.6,16.9,30.19,West,279,2.0,14.0,61,0.00,,---,0.00,VWS V14.00,2013-02-20 08:15:00,
2013-02-20 03:20:00,28.3,16.2,30.19,South,174,2.0,14.0,60,0.00,,---,0.00,VWS V14.00,2013-02-20 08:20:00,
2013-02-20 03:25:00,28.2,15.7,30.20,SSE,153,0.0,14.0,59,0.00,,---,0.00,VWS V14.00,2013-02-20 08:25:00,
2013-02-20 03:30:00,28.2,15.7,30.19,WSW,253,3.0,14.0,59,0.00,,---,0.00,VWS V14.00,2013-02-20 08:30:00,
2013-02-20 03:35:00,28.1,16.4,30.19,NW,319,0.0,14.0,61,0.00,,---,0.00,VWS V14.00,2013-02-20 08:35:00,
2013-02-20 03:40:00,28.0,15.9,30.19,SSE,164,0.0,10.0,60,0.00,,---,0.00,VWS V14.00,2013-02-20 08:40:00,
2013-02-20 03:45:00,28.0,16.3,30.19,South,171,3.0,10.0,61,0.00,,---,0.00,VWS V14.00,2013-02-20 08:45:00,
2013-02-20 03:50:00,28.1,16.4,30.19,South,175,0.0,10.0,61,0.00,,---,0.00,VWS V14.00,2013-02-20 08:50:00,
2013-02-20 03:55:00,28.0,15.1,30.19,South,180,4.0,11.0,58,0.00,,---,0.00,VWS V14.00,2013-02-20 08:55:00,
2013-02-20 04:00:00,28.1,16.4,30.19,SSE,150,0.0,11.0,61,0.00,,---,0.00,VWS V14.00,2013-02-20 09:00:00,
2013-02-20 04:05:00,27.9,17.0,30.19,South,175,0.0,11.0,63,0.00,,---,0.00,VWS V14.00,2013-02-20 09:05:00,
2013-02-20 04:10:00,27.7,16.4,30.19,South,182,0.0,7.0,62,0.00,,---,0.00,VWS V14.00,2013-02-20 09:10:00,
2013-02-20 04:15:00,27.6,15.9,30.19,South,180,0.0,7.0,61,0.00,,---,0.00,VWS V14.00,2013-02-20 09:15:00,
2013-02-20 04:20:00,27.5,16.2,30.20,South,180,0.0,7.0,62,0.00,,---,0.00,VWS V14.00,2013-02-20 09:20:00,
2013-02-20 04:25:00,27.3,16.4,30.20,South,172,2.0,7.0,63,0.00,,---,0.00,VWS V14.00,2013-02-20 09:25:00,
2013-02-20 04:30:00,27.3,16.4,30.20,SW,222,0.0,7.0,63,0.00,,---,0.00,VWS V14.00,2013-02-20 09:30:00,
2013-02-20 04:35:00,27.2,15.9,30.19,SW,225,0.0,7.0,62,0.00,,---,0.00,VWS V14.00,2013-02-20 09:35:00,
2013-02-20 04:40:00,27.1,15.4,30.19,SW,225,0.0,0.0,61,0.00,,---,0.00,VWS V14.00,2013-02-20 09:40:00,
2013-02-20 04:45:00,27.0,15.4,30.19,West,271,0.0,2.0,61,0.00,,---,0.00,VWS V14.00,2013-02-20 09:45:00,
2013-02-20 04:50:00,27.0,15.4,30.19,West,271,0.0,2.0,61,0.00,,---,0.00,VWS V14.00,2013-02-20 09:50:00,
2013-02-20 04:55:00,26.9,15.6,30.19,West,274,0.0,2.0,62,0.00,,---,0.00,VWS V14.00,2013-02-20 09:55:00,
2013-02-20 05:00:00,26.9,16.0,30.20,SSW,200,0.0,2.0,63,0.00,,---,0.00,VWS V14.00,2013-02-20 10:00:00,
2013-02-20 05:05:00,26.9,15.6,30.20,South,173,2.0,5.0,62,0.00,,---,0.00,VWS V14.00,2013-02-20 10:05:00,
2013-02-20 05:10:00,26.9,14.9,30.20,WSW,238,0.0,3.0,60,0.00,,---,0.00,VWS V14.00,2013-02-20 10:10:00,
2013-02-20 05:15:00,26.9,14.9,30.21,South,184,1.0,7.0,60,0.00,,---,0.00,VWS V14.00,2013-02-20 10:15:00,
2013-02-20 05:20:00,27.0,15.4,30.20,SSW,203,0.0,7.0,61,0.00,,---,0.00,VWS V14.00,2013-02-20 10:20:00,
2013-02-20 05:25:00,27.0,14.6,30.20,South,169,2.0,7.0,59,0.00,,---,0.00,VWS V14.00,2013-02-20 10:25:00,
2013-02-20 05:30:00,27.1,15.4,30.21,SSW,202,2.0,9.0,61,0.00,,---,0.00,VWS V14.00,2013-02-20 10:30:00,
2013-02-20 05:35:00,27.1,15.4,30.21,SSW,192,0.0,9.0,61,0.00,,---,0.00,VWS V14.00,2013-02-20 10:35:00,
2013-02-20 05:40:00,27.0,15.4,30.21,ESE,106,0.0,4.0,61,0.00,,---,0.00,VWS V14.00,2013-02-20 10:40:00,
2013-02-20 05:45:00,26.9,15.3,30.22,South,189,4.0,5.0,61,0.00,,---,0.00,VWS V14.00,2013-02-20 10:45:00,
2013-02-20 05:50:00,27.1,15.8,30.22,South,171,3.0,6.0,62,0.00,,---,0.00,VWS V14.00,2013-02-20 10:50:00,
2013-02-20 05:55:00,27.0,15.4,30.22,SSE,152,0.0,6.0,61,0.00,,---,0.00,VWS V14.00,2013-02-20 10:55:00,
2013-02-20 06:00:00,27.0,15.0,30.22,SSE,167,10.0,10.0,60,0.00,,---,0.00,VWS V14.00,2013-02-20 11:00:00,
2013-02-20 06:05:00,27.1,15.1,30.22,SSW,208,0.0,10.0,60,0.00,,---,0.00,VWS V14.00,2013-02-20 11:05:00,
2013-02-20 06:10:00,27.2,15.2,30.22,South,173,0.0,7.0,60,0.00,,---,0.00,VWS V14.00,2013-02-20 11:10:00,
2013-02-20 06:15:00,27.1,14.7,30.22,SSE,164,2.0,7.0,59,0.00,,---,0.00,VWS V14.00,2013-02-20 11:15:00,
2013-02-20 06:20:00,27.3,12.9,30.22,SE,146,0.0,9.0,54,0.00,,---,0.00,VWS V14.00,2013-02-20 11:20:00,
2013-02-20 06:25:00,27.5,13.5,30.22,SSE,167,1.0,9.0,55,0.00,,---,0.00,VWS V14.00,2013-02-20 11:25:00,
2013-02-20 06:30:00,27.6,13.1,30.22,South,188,1.0,9.0,54,0.00,,---,0.00,VWS V14.00,2013-02-20 11:30:00,
2013-02-20 06:35:00,27.5,14.3,30.22,South,182,0.0,9.0,57,0.00,,---,0.00,VWS V14.00,2013-02-20 11:35:00,
2013-02-20 06:40:00,27.4,13.0,30.22,SSE,164,1.0,2.0,54,0.00,,---,0.00,VWS V14.00,2013-02-20 11:40:00,
2013-02-20 06:45:00,27.4,12.5,30.22,South,170,2.0,6.0,53,0.00,,---,0.00,VWS V14.00,2013-02-20 11:45:00,
2013-02-20 06:50:00,27.4,13.8,30.22,South,171,2.0,6.0,56,0.00,,---,0.00,VWS V14.00,2013-02-20 11:50:00,
2013-02-20 06:55:00,27.3,11.6,30.21,South,172,2.0,6.0,51,0.00,,---,0.00,VWS V14.00,2013-02-20 11:55:00,
2013-02-20 07:00:00,27.4,12.5,30.21,South,173,0.0,6.0,53,0.00,,---,0.00,VWS V14.00,2013-02-20 12:00:00,
2013-02-20 07:05:00,27.3,12.4,30.21,South,180,0.0,6.0,53,0.00,,---,0.00,VWS V14.00,2013-02-20 12:05:00,
2013-02-20 07:10:00,27.2,11.5,30.22,South,180,0.0,3.0,51,0.00,,---,0.00,VWS V14.00,2013-02-20 12:10:00,
2013-02-20 07:15:00,27.2,11.5,30.22,SSW,206,0.0,3.0,51,0.00,,---,0.00,VWS V14.00,2013-02-20 12:15:00,
2013-02-20 07:20:00,27.3,12.4,30.22,SW,231,0.0,3.0,53,0.00,,---,0.00,VWS V14.00,2013-02-20 12:20:00,
2013-02-20 07:25:00,27.3,11.6,30.23,SSW,200,0.0,5.0,51,0.00,,---,0.00,VWS V14.00,2013-02-20 12:25:00,
2013-02-20 07:30:00,27.3,11.1,30.23,SSW,199,0.0,5.0,50,0.00,,---,0.00,VWS V14.00,2013-02-20 12:30:00,
2013-02-20 07:35:00,27.3,10.7,30.23,West,260,0.0,5.0,49,0.00,,---,0.00,VWS V14.00,2013-02-20 12:35:00,
2013-02-20 07:40:00,27.4,10.3,30.23,WSW,257,0.0,2.0,48,0.00,,---,0.00,VWS V14.00,2013-02-20 12:40:00,
2013-02-20 07:45:00,27.6,10.0,30.23,South,179,1.0,3.0,47,0.00,,---,0.00,VWS V14.00,2013-02-20 12:45:00,
2013-02-20 07:50:00,27.9,9.8,30.23,SSE,165,2.0,5.0,46,0.00,,---,0.00,VWS V14.00,2013-02-20 12:50:00,
2013-02-20 07:55:00,28.1,9.5,30.23,SSE,157,0.0,5.0,45,0.00,,---,0.00,VWS V14.00,2013-02-20 12:55:00,
2013-02-20 08:00:00,28.3,9.7,30.23,SW,222,0.0,5.0,45,0.00,,---,0.00,VWS V14.00,2013-02-20 13:00:00,
2013-02-20 08:05:00,28.5,9.9,30.23,South,178,1.0,5.0,45,0.00,,---,0.00,VWS V14.00,2013-02-20 13:05:00,
2013-02-20 08:10:00,28.8,9.6,30.24,SSE,167,0.0,6.0,44,0.00,,---,0.00,VWS V14.00,2013-02-20 13:10:00,
2013-02-20 08:15:00,29.3,9.1,30.24,SSE,164,5.0,6.0,42,0.00,,---,0.00,VWS V14.00,2013-02-20 13:15:00,
2013-02-20 08:20:00,29.7,9.4,30.24,SSW,198,1.0,10.0,42,0.00,,---,0.00,VWS V14.00,2013-02-20 13:20:00,
2013-02-20 08:25:00,30.0,8.6,30.25,WNW,284,5.0,10.0,40,0.00,,---,0.00,VWS V14.00,2013-02-20 13:25:00,
2013-02-20 08:30:00,30.3,8.9,30.25,South,180,0.0,10.0,40,0.00,,---,0.00,VWS V14.00,2013-02-20 13:30:00,
2013-02-20 08:35:00,30.6,8.0,30.24,South,171,0.0,10.0,38,0.00,,---,0.00,VWS V14.00,2013-02-20 13:35:00,
2013-02-20 08:40:00,31.0,7.2,30.24,SW,214,5.0,9.0,36,0.00,,---,0.00,VWS V14.00,2013-02-20 13:40:00,
2013-02-20 08:45:00,31.4,8.7,30.24,South,175,0.0,9.0,38,0.00,,---,0.00,VWS V14.00,2013-02-20 13:45:00,
2013-02-20 08:50:00,31.9,6.7,30.24,SSW,197,3.0,11.0,34,0.00,,---,0.00,VWS V14.00,2013-02-20 13:50:00,
2013-02-20 08:55:00,32.4,7.2,30.24,SSW,209,1.0,11.0,34,0.00,,---,0.00,VWS V14.00,2013-02-20 13:55:00,
2013-02-20 09:00:00,32.9,8.9,30.24,SSE,153,0.0,11.0,36,0.00,,---,0.00,VWS V14.00,2013-02-20 14:00:00,
2013-02-20 09:05:00,33.4,5.3,30.23,SSE,148,0.0,11.0,30,0.00,,---,0.00,VWS V14.00,2013-02-20 14:05:00,
2013-02-20 09:10:00,33.6,4.8,30.24,South,174,1.0,12.0,29,0.00,,---,0.00,VWS V14.00,2013-02-20 14:10:00,
2013-02-20 09:15:00,33.4,6.0,30.24,South,186,3.0,15.0,31,0.00,,---,0.00,VWS V14.00,2013-02-20 14:15:00,
2013-02-20 09:20:00,33.7,4.8,30.25,South,174,0.0,15.0,29,0.00,,---,0.00,VWS V14.00,2013-02-20 14:20:00,
2013-02-20 09:25:00,34.2,5.3,30.25,SSE,152,3.0,15.0,29,0.00,,---,0.00,VWS V14.00,2013-02-20 14:25:00,
2013-02-20 09:30:00,34.3,4.6,30.25,SE,125,4.0,15.0,28,0.00,,---,0.00,VWS V14.00,2013-02-20 14:30:00,
2013-02-20 09:35:00,34.5,4.8,30.25,SSE,153,9.0,15.0,28,0.00,,---,0.00,VWS V14.00,2013-02-20 14:35:00,
2013-02-20 09:40:00,34.7,3.3,30.24,South,169,11.0,18.0,26,0.00,,---,0.00,VWS V14.00,2013-02-20 14:40:00,
2013-02-20 09:45:00,35.0,5.2,30.24,ESE,111,4.0,18.0,28,0.00,,---,0.00,VWS V14.00,2013-02-20 14:45:00,
2013-02-20 09:50:00,35.4,4.8,30.24,SSW,209,11.0,18.0,27,0.00,,---,0.00,VWS V14.00,2013-02-20 14:50:00,
2013-02-20 09:55:00,35.8,3.4,30.23,South,188,9.0,18.0,25,0.00,,---,0.00,VWS V14.00,2013-02-20 14:55:00,
2013-02-20 10:00:00,35.8,3.4,30.23,SE,145,2.0,18.0,25,0.00,,---,0.00,VWS V14.00,2013-02-20 15:00:00,
2013-02-20 10:05:00,36.0,0.9,30.23,SSW,198,2.0,18.0,22,0.00,,---,0.00,VWS V14.00,2013-02-20 15:05:00,
2013-02-20 10:10:00,36.8,6.0,30.23,SE,146,4.0,7.0,27,0.00,,---,0.00,VWS V14.00,2013-02-20 15:10:00,
2013-02-20 10:15:00,37.1,3.7,30.24,South,186,9.0,14.0,24,0.00,,---,0.00,VWS V14.00,2013-02-20 15:15:00,
2013-02-20 10:20:00,37.3,2.9,30.24,SSE,163,6.0,14.0,23,0.00,,---,0.00,VWS V14.00,2013-02-20 15:20:00,
2013-02-20 10:25:00,37.9,4.3,30.23,SE,141,13.0,14.0,24,0.00,,---,0.00,VWS V14.00,2013-02-20 15:25:00,
2013-02-20 10:30:00,38.2,2.7,30.24,SW,220,3.0,14.0,22,0.00,,---,0.00,VWS V14.00,2013-02-20 15:30:00,
2013-02-20 10:35:00,38.4,1.9,30.23,SSE,167,5.0,14.0,21,0.00,,---,0.00,VWS V14.00,2013-02-20 15:35:00,
2013-02-20 10:40:00,38.7,3.1,30.23,South,182,5.0,11.0,22,0.00,,---,0.00,VWS V14.00,2013-02-20 15:40:00,
2013-02-20 10:45:00,39.1,2.5,30.23,SE,132,7.0,11.0,21,0.00,,---,0.00,VWS V14.00,2013-02-20 15:45:00,
2013-02-20 10:50:00,39.6,2.9,30.22,East,95,6.0,11.0,21,0.00,,---,0.00,VWS V14.00,2013-02-20 15:50:00,
2013-02-20 10:55:00,39.7,1.9,30.22,SSE,163,4.0,13.0,20,0.00,,---,0.00,VWS V14.00,2013-02-20 15:55:00,
2013-02-20 11:00:00,39.7,1.9,30.22,SE,144,1.0,14.0,20,0.00,,---,0.00,VWS V14.00,2013-02-20 16:00:00,
2013-02-20 11:05:00,39.7,0.8,30.22,South,171,5.0,14.0,19,0.00,,---,0.00,VWS V14.00,2013-02-20 16:05:00,
2013-02-20 11:10:00,39.3,1.6,30.23,SSE,153,0.0,15.0,20,0.00,,---,0.00,VWS V14.00,2013-02-20 16:10:00,
2013-02-20 11:15:00,39.8,-0.2,30.23,SSE,167,2.0,15.0,18,0.00,,---,0.00,VWS V14.00,2013-02-20 16:15:00,
2013-02-20 11:20:00,40.7,5.8,30.22,SSE,150,3.0,15.0,23,0.00,,---,0.00,VWS V14.00,2013-02-20 16:20:00,
2013-02-20 11:25:00,41.0,0.8,30.22,SSE,149,7.0,16.0,18,0.00,,---,0.00,VWS V14.00,2013-02-20 16:25:00,
2013-02-20 11:30:00,41.1,0.8,30.22,SSE,165,4.0,17.0,18,0.00,,---,0.00,VWS V14.00,2013-02-20 16:30:00,
2013-02-20 11:35:00,41.2,4.2,30.22,SE,130,3.0,18.0,21,0.00,,---,0.00,VWS V14.00,2013-02-20 16:35:00,
2013-02-20 11:40:00,41.7,2.5,30.22,ESE,119,6.0,16.0,19,0.00,,---,0.00,VWS V14.00,2013-02-20 16:40:00,
2013-02-20 11:45:00,42.4,6.3,30.21,SE,130,2.0,16.0,22,0.00,,---,0.00,VWS V14.00,2013-02-20 16:45:00,
2013-02-20 11:50:00,42.1,1.7,30.22,SE,132,6.0,16.0,18,0.00,,---,0.00,VWS V14.00,2013-02-20 16:50:00,
2013-02-20 11:55:00,41.7,5.7,30.21,South,172,2.0,16.0,22,0.00,,---,0.00,VWS V14.00,2013-02-20 16:55:00,
2013-02-20 11:59:00,41.6,5.6,30.21,SSE,148,5.0,16.0,22,0.00,,---,0.00,VWS V14.00,2013-02-20 16:59:00,
2013-02-20 12:04:00,42.1,6.0,30.21,East,86,5.0,16.0,22,0.00,,---,0.00,VWS V14.00,2013-02-20 17:04:00,
2013-02-20 12:09:00,41.9,1.5,30.22,SSE,157,10.0,11.0,18,0.00,,---,0.00,VWS V14.00,2013-02-20 17:09:00,
2013-02-20 12:14:00,41.1,-0.4,30.22,South,190,11.0,12.0,17,0.00,,---,0.00,VWS V14.00,2013-02-20 17:14:00,
2013-02-20 12:19:00,40.5,-0.9,30.22,South,177,10.0,17.0,17,0.00,,---,0.00,VWS V14.00,2013-02-20 17:19:00,
2013-02-20 12:24:00,40.0,-0.1,30.23,SE,129,5.0,17.0,18,0.00,,---,0.00,VWS V14.00,2013-02-20 17:24:00,
2013-02-20 12:29:00,40.2,1.2,30.22,SSE,168,8.0,17.0,19,0.00,,---,0.00,VWS V14.00,2013-02-20 17:29:00,
2013-02-20 12:34:00,40.4,1.4,30.22,SE,140,9.0,17.0,19,0.00,,---,0.00,VWS V14.00,2013-02-20 17:34:00,
2013-02-20 12:39:00,40.4,0.3,30.22,South,190,6.0,14.0,18,0.00,,---,0.00,VWS V14.00,2013-02-20 17:39:00,
2013-02-20 12:44:00,40.6,1.6,30.21,SE,144,8.0,14.0,19,0.00,,---,0.00,VWS V14.00,2013-02-20 17:44:00,
2013-02-20 12:49:00,40.5,0.3,30.21,SSW,200,4.0,15.0,18,0.00,,---,0.00,VWS V14.00,2013-02-20 17:49:00,
2013-02-20 12:54:00,40.6,3.7,30.21,South,184,2.0,15.0,21,0.00,,---,0.00,VWS V14.00,2013-02-20 17:54:00,
2013-02-20 12:59:00,41.0,4.1,30.20,SE,130,7.0,15.0,21,0.00,,---,0.00,VWS V14.00,2013-02-20 17:59:00,
2013-02-20 13:04:00,41.0,1.9,30.20,ESE,117,4.0,15.0,19,0.00,,---,0.00,VWS V14.00,2013-02-20 18:04:00,
2013-02-20 13:09:00,41.1,3.1,30.20,SE,130,0.0,12.0,20,0.00,,---,0.00,VWS V14.00,2013-02-20 18:09:00,
2013-02-20 13:14:00,40.8,1.8,30.20,ESE,106,3.0,15.0,19,0.00,,---,0.00,VWS V14.00,2013-02-20 18:14:00,
2013-02-20 13:19:00,40.5,3.7,30.20,ESE,123,3.0,15.0,21,0.00,,---,0.00,VWS V14.00,2013-02-20 18:19:00,
2013-02-20 13:24:00,40.6,2.7,30.20,SE,145,5.0,15.0,20,0.00,,---,0.00,VWS V14.00,2013-02-20 18:24:00,
2013-02-20 13:29:00,40.7,5.8,30.19,SE,127,2.0,15.0,23,0.00,,---,0.00,VWS V14.00,2013-02-20 18:29:00,
2013-02-20 13:34:00,41.1,4.2,30.20,SSE,163,0.0,15.0,21,0.00,,---,0.00,VWS V14.00,2013-02-20 18:34:00,
2013-02-20 13:39:00,41.3,3.3,30.19,SSW,195,5.0,9.0,20,0.00,,---,0.00,VWS V14.00,2013-02-20 18:39:00,
2013-02-20 13:44:00,41.3,4.3,30.19,SE,129,1.0,9.0,21,0.00,,---,0.00,VWS V14.00,2013-02-20 18:44:00,
2013-02-20 13:49:00,41.6,4.6,30.19,SSE,167,4.0,9.0,21,0.00,,---,0.00,VWS V14.00,2013-02-20 18:49:00,
2013-02-20 13:54:00,41.8,4.7,30.18,SSE,148,0.0,9.0,21,0.00,,---,0.00,VWS V14.00,2013-02-20 18:54:00,
2013-02-20 13:59:00,41.8,4.7,30.18,South,178,6.0,9.0,21,0.00,,---,0.00,VWS V14.00,2013-02-20 18:59:00,
2013-02-20 14:04:00,41.7,5.7,30.18,SE,146,2.0,9.0,22,0.00,,---,0.00,VWS V14.00,2013-02-20 19:04:00,
2013-02-20 14:09:00,41.9,5.8,30.18,South,171,2.0,7.0,22,0.00,,---,0.00,VWS V14.00,2013-02-20 19:09:00,
2013-02-20 14:14:00,41.6,6.6,30.18,SSE,167,7.0,11.0,23,0.00,,---,0.00,VWS V14.00,2013-02-20 19:14:00,
2013-02-20 14:19:00,41.6,3.5,30.18,SSE,155,7.0,11.0,20,0.00,,---,0.00,VWS V14.00,2013-02-20 19:19:00,
2013-02-20 14:24:00,41.9,3.8,30.18,SSE,167,12.0,16.0,20,0.00,,---,0.00,VWS V14.00,2013-02-20 19:24:00,
2013-02-20 14:29:00,41.7,4.7,30.18,SSE,164,13.0,16.0,21,0.00,,---,0.00,VWS V14.00,2013-02-20 19:29:00,
2013-02-20 14:34:00,41.7,3.6,30.18,SE,145,1.0,16.0,20,0.00,,---,0.00,VWS V14.00,2013-02-20 19:34:00,
2013-02-20 14:39:00,41.9,2.7,30.17,SE,146,4.0,13.0,19,0.00,,---,0.00,VWS V14.00,2013-02-20 19:39:00,
2013-02-20 14:44:00,42.1,3.9,30.17,South,180,2.0,13.0,20,0.00,,---,0.00,VWS V14.00,2013-02-20 19:44:00,
2013-02-20 14:49:00,42.2,1.8,30.18,South,186,6.0,13.0,18,0.00,,---,0.00,VWS V14.00,2013-02-20 19:49:00,
2013-02-20 14:54:00,42.0,1.6,30.18,South,190,6.0,13.0,18,0.00,,---,0.00,VWS V14.00,2013-02-20 19:54:00,
2013-02-20 14:59:00,41.9,1.5,30.18,SSE,159,5.0,13.0,18,0.00,,---,0.00,VWS V14.00,2013-02-20 19:59:00,
2013-02-20 15:04:00,41.9,0.3,30.18,SSE,150,4.0,13.0,17,0.00,,---,0.00,VWS V14.00,2013-02-20 20:04:00,
2013-02-20 15:09:00,41.9,1.5,30.18,SE,144,6.0,11.0,18,0.00,,---,0.00,VWS V14.00,2013-02-20 20:09:00,
2013-02-20 15:14:00,42.0,3.8,30.18,SSE,156,5.0,11.0,20,0.00,,---,0.00,VWS V14.00,2013-02-20 20:14:00,
2013-02-20 15:19:00,41.9,3.8,30.18,South,183,3.0,11.0,20,0.00,,---,0.00,VWS V14.00,2013-02-20 20:19:00,
2013-02-20 15:24:00,41.8,3.7,30.18,SSE,156,0.0,11.0,20,0.00,,---,0.00,VWS V14.00,2013-02-20 20:24:00,
2013-02-20 15:29:00,42.0,5.9,30.17,SSE,150,0.0,11.0,22,0.00,,---,0.00,VWS V14.00,2013-02-20 20:29:00,
2013-02-20 15:34:00,42.1,3.9,30.18,SSE,157,2.0,11.0,20,0.00,,---,0.00,VWS V14.00,2013-02-20 20:34:00,
2013-02-20 15:39:00,42.0,3.8,30.18,SE,146,4.0,10.0,20,0.00,,---,0.00,VWS V14.00,2013-02-20 20:39:00,
2013-02-20 15:44:00,41.9,3.8,30.18,South,182,5.0,12.0,20,0.00,,---,0.00,VWS V14.00,2013-02-20 20:44:00,
2013-02-20 15:49:00,41.8,3.7,30.18,South,188,0.0,12.0,20,0.00,,---,0.00,VWS V14.00,2013-02-20 20:49:00,
2013-02-20 15:54:00,41.8,3.7,30.18,SSW,195,0.0,12.0,20,0.00,,---,0.00,VWS V14.00,2013-02-20 20:54:00,
2013-02-20 15:59:00,41.9,4.8,30.19,SSW,207,5.0,12.0,21,0.00,,---,0.00,VWS V14.00,2013-02-20 20:59:00,
2013-02-20 16:04:00,42.0,5.9,30.19,SSE,160,0.0,12.0,22,0.00,,---,0.00,VWS V14.00,2013-02-20 21:04:00,
2013-02-20 16:09:00,41.9,7.8,30.20,SSE,161,0.0,5.0,24,0.00,,---,0.00,VWS V14.00,2013-02-20 21:09:00,
2013-02-20 16:14:00,42.2,8.9,30.20,South,176,6.0,6.0,25,0.00,,---,0.00,VWS V14.00,2013-02-20 21:14:00,
2013-02-20 16:19:00,41.7,7.6,30.20,South,179,2.0,6.0,24,0.00,,---,0.00,VWS V14.00,2013-02-20 21:19:00,
2013-02-20 16:24:00,41.1,8.0,30.21,WNW,286,0.0,6.0,25,0.00,,---,0.00,VWS V14.00,2013-02-20 21:24:00,
2013-02-20 16:29:00,40.9,8.7,30.21,NE,45,0.0,6.0,26,0.00,,---,0.00,VWS V14.00,2013-02-20 21:29:00,
2013-02-20 16:34:00,40.6,8.4,30.20,SSW,193,0.0,6.0,26,0.00,,---,0.00,VWS V14.00,2013-02-20 21:34:00,
2013-02-20 16:39:00,40.2,8.1,30.21,SE,130,3.0,9.0,26,0.00,,---,0.00,VWS V14.00,2013-02-20 21:39:00,
2013-02-20 16:44:00,39.8,6.9,30.21,South,182,0.0,9.0,25,0.00,,---,0.00,VWS V14.00,2013-02-20 21:44:00,
2013-02-20 16:49:00,39.5,8.3,30.22,South,182,0.0,9.0,27,0.00,,---,0.00,VWS V14.00,2013-02-20 21:49:00,
2013-02-20 16:54:00,39.3,7.3,30.22,NNE,32,2.0,9.0,26,0.00,,---,0.00,VWS V14.00,2013-02-20 21:54:00,
2013-02-20 16:59:00,39.0,7.9,30.22,South,187,1.0,9.0,27,0.00,,---,0.00,VWS V14.00,2013-02-20 21:59:00,
2013-02-20 17:04:00,38.5,8.2,30.22,South,178,5.0,9.0,28,0.00,,---,0.00,VWS V14.00,2013-02-20 22:04:00,
2013-02-20 17:09:00,38.1,7.1,30.23,South,173,10.0,13.0,27,0.00,,---,0.00,VWS V14.00,2013-02-20 22:09:00,
2013-02-20 17:14:00,37.8,6.0,30.23,South,182,3.0,13.0,26,0.00,,---,0.00,VWS V14.00,2013-02-20 22:14:00,
2013-02-20 17:19:00,37.5,6.6,30.24,ESE,123,4.0,13.0,27,0.00,,---,0.00,VWS V14.00,2013-02-20 22:19:00,
2013-02-20 17:24:00,37.2,8.6,30.24,South,175,2.0,13.0,30,0.00,,---,0.00,VWS V14.00,2013-02-20 22:24:00,
2013-02-20 17:29:00,37.1,7.8,30.24,South,179,1.0,13.0,29,0.00,,---,0.00,VWS V14.00,2013-02-20 22:29:00,
2013-02-20 17:34:00,36.9,8.4,30.24,SSE,155,3.0,13.0,30,0.00,,---,0.00,VWS V14.00,2013-02-20 22:34:00,
2013-02-20 17:39:00,36.8,7.5,30.24,SE,144,4.0,9.0,29,0.00,,---,0.00,VWS V14.00,2013-02-20 22:39:00,
2013-02-20 17:44:00,36.7,8.2,30.24,South,178,2.0,9.0,30,0.00,,---,0.00,VWS V14.00,2013-02-20 22:44:00,
2013-02-20 17:49:00,36.6,8.8,30.24,NW,314,6.0,9.0,31,0.00,,---,0.00,VWS V14.00,2013-02-20 22:49:00,
2013-02-20 17:54:00,36.5,8.8,30.24,West,273,0.0,9.0,31,0.00,,---,0.00,VWS V14.00,2013-02-20 22:54:00,
2013-02-20 17:59:00,36.4,10.1,30.24,NW,318,3.0,9.0,33,0.00,,---,0.00,VWS V14.00,2013-02-20 22:59:00,
2013-02-20 18:04:00,36.2,10.6,30.23,NW,309,3.0,9.0,34,0.00,,---,0.00,VWS V14.00,2013-02-20 23:04:00,
2013-02-20 18:09:00,36.1,11.1,30.22,WNW,284,1.0,4.0,35,0.00,,---,0.00,VWS V14.00,2013-02-20 23:09:00,
2013-02-20 18:14:00,35.9,10.3,30.22,SSW,196,0.0,6.0,34,0.00,,---,0.00,VWS V14.00,2013-02-20 23:14:00,
2013-02-20 18:19:00,35.6,10.7,30.22,West,275,2.0,10.0,35,0.00,,---,0.00,VWS V14.00,2013-02-20 23:19:00,
2013-02-20 18:24:00,35.4,11.1,30.22,West,279,0.0,10.0,36,0.00,,---,0.00,VWS V14.00,2013-02-20 23:24:00,
2013-02-20 18:29:00,35.3,11.0,30.22,NW,310,2.0,10.0,36,0.00,,---,0.00,VWS V14.00,2013-02-20 23:29:00,
2013-02-20 18:34:00,35.1,9.6,30.22,WNW,302,2.0,10.0,34,0.00,,---,0.00,VWS V14.00,2013-02-20 23:34:00,
2013-02-20 18:39:00,35.0,8.8,30.22,West,271,1.0,4.0,33,0.00,,---,0.00,VWS V14.00,2013-02-20 23:39:00,
2013-02-20 18:44:00,35.0,9.5,30.24,WNW,302,3.0,7.0,34,0.00,,---,0.00,VWS V14.00,2013-02-20 23:44:00,
2013-02-20 18:49:00,35.0,9.5,30.24,NW,313,3.0,7.0,34,0.00,,---,0.00,VWS V14.00,2013-02-20 23:49:00,
2013-02-20 18:54:00,34.9,10.0,30.23,West,277,0.0,7.0,35,0.00,,---,0.00,VWS V14.00,2013-02-20 23:54:00,
2013-02-20 18:59:00,34.8,9.9,30.23,West,277,1.0,7.0,35,0.00,,---,0.00,VWS V14.00,2013-02-20 23:59:00,
2013-02-20 19:04:00,34.7,11.7,30.23,West,277,0.0,7.0,38,0.00,,---,0.00,VWS V14.00,2013-02-21 00:04:00,
2013-02-20 19:09:00,34.4,9.6,30.23,West,277,0.0,0.0,35,0.00,,---,0.00,VWS V14.00,2013-02-21 00:09:00,
2013-02-20 19:14:00,34.4,8.9,30.23,West,277,0.0,3.0,34,0.00,,---,0.00,VWS V14.00,2013-02-21 00:14:00,
2013-02-20 19:19:00,34.4,11.4,30.23,West,278,0.0,3.0,38,0.00,,---,0.00,VWS V14.00,2013-02-21 00:19:00,
2013-02-20 19:24:00,34.3,11.4,30.23,West,277,0.0,3.0,38,0.00,,---,0.00,VWS V14.00,2013-02-21 00:24:00,
2013-02-20 19:29:00,34.1,11.2,30.22,West,277,0.0,3.0,38,0.00,,---,0.00,VWS V14.00,2013-02-21 00:29:00,
2013-02-20 19:34:00,33.8,9.7,30.23,West,277,0.0,3.0,36,0.00,,---,0.00,VWS V14.00,2013-02-21 00:34:00,
2013-02-20 19:39:00,33.6,9.5,30.23,West,278,0.0,0.0,36,0.00,,---,0.00,VWS V14.00,2013-02-21 00:39:00,
2013-02-20 19:44:00,33.3,9.9,30.22,West,277,0.0,0.0,37,0.00,,---,0.00,VWS V14.00,2013-02-21 00:44:00,
2013-02-20 19:49:00,33.1,9.1,30.23,West,277,0.0,0.0,36,0.00,,---,0.00,VWS V14.00,2013-02-21 00:49:00,
2013-02-20 19:54:00,32.9,9.5,30.23,West,278,0.0,0.0,37,0.00,,---,0.00,VWS V14.00,2013-02-21 00:54:00,
2013-02-20 19:59:00,32.7,9.9,30.23,West,278,0.0,1.0,38,0.00,,---,0.00,VWS V14.00,2013-02-21 00:59:00,
2013-02-20 20:04:00,32.6,9.8,30.23,West,278,0.0,1.0,38,0.00,,---,0.00,VWS V14.00,2013-02-21 01:04:00,
2013-02-20 20:09:00,32.5,10.9,30.22,West,277,0.0,0.0,40,0.00,,---,0.00,VWS V14.00,2013-02-21 01:09:00,
2013-02-20 20:14:00,32.4,10.8,30.22,West,277,0.0,0.0,40,0.00,,---,0.00,VWS V14.00,2013-02-21 01:14:00,
2013-02-20 20:19:00,32.3,11.8,30.22,West,277,0.0,1.0,42,0.00,,---,0.00,VWS V14.00,2013-02-21 01:19:00,
2013-02-20 20:24:00,32.1,11.1,30.22,West,278,0.0,1.0,41,0.00,,---,0.00,VWS V14.00,2013-02-21 01:24:00,
2013-02-20 20:29:00,31.9,10.9,30.22,West,277,0.0,1.0,41,0.00,,---,0.00,VWS V14.00,2013-02-21 01:29:00,
2013-02-20 20:34:00,31.7,11.8,30.21,West,277,0.0,1.0,43,0.00,,---,0.00,VWS V14.00,2013-02-21 01:34:00,
2013-02-20 20:39:00,31.5,10.5,30.22,West,278,0.0,0.0,41,0.00,,---,0.00,VWS V14.00,2013-02-21 01:39:00,
2013-02-20 20:44:00,31.4,11.0,30.22,West,278,0.0,0.0,42,0.00,,---,0.00,VWS V14.00,2013-02-21 01:44:00,
2013-02-20 20:49:00,31.2,10.8,30.22,West,277,0.0,0.0,42,0.00,,---,0.00,VWS V14.00,2013-02-21 01:49:00,
2013-02-20 20:54:00,31.1,9.1,30.22,West,277,0.0,0.0,39,0.00,,---,0.00,VWS V14.00,2013-02-21 01:54:00,
2013-02-20 20:59:00,31.1,10.2,30.22,West,277,0.0,0.0,41,0.00,,---,0.00,VWS V14.00,2013-02-21 01:59:00,
2013-02-20 21:04:00,31.0,10.6,30.22,West,277,0.0,0.0,42,0.00,,---,0.00,VWS V14.00,2013-02-21 02:04:00,
2013-02-20 21:09:00,30.8,11.0,30.21,West,278,0.0,0.0,43,0.00,,---,0.00,VWS V14.00,2013-02-21 02:09:00,
2013-02-20 21:14:00,30.6,11.8,30.22,West,278,0.0,0.0,45,0.00,,---,0.00,VWS V14.00,2013-02-21 02:14:00,
2013-02-20 21:19:00,30.5,10.7,30.22,West,277,0.0,0.0,43,0.00,,---,0.00,VWS V14.00,2013-02-21 02:19:00,
2013-02-20 21:24:00,30.3,12.0,30.22,West,277,0.0,0.0,46,0.00,,---,0.00,VWS V14.00,2013-02-21 02:24:00,
2013-02-20 21:29:00,30.2,12.9,30.22,West,278,0.0,0.0,48,0.00,,---,0.00,VWS V14.00,2013-02-21 02:29:00,
2013-02-20 21:34:00,30.1,12.3,30.22,West,277,0.0,0.0,47,0.00,,---,0.00,VWS V14.00,2013-02-21 02:34:00,
2013-02-20 21:39:00,29.9,12.1,30.22,West,278,0.0,0.0,47,0.00,,---,0.00,VWS V14.00,2013-02-21 02:39:00,
2013-02-20 21:44:00,29.8,12.5,30.22,West,277,0.0,0.0,48,0.00,,---,0.00,VWS V14.00,2013-02-21 02:44:00,
2013-02-20 21:49:00,29.8,13.0,30.22,West,278,0.0,0.0,49,0.00,,---,0.00,VWS V14.00,2013-02-21 02:49:00,
2013-02-20 21:54:00,29.7,12.4,30.22,West,278,0.0,0.0,48,0.00,,---,0.00,VWS V14.00,2013-02-21 02:54:00,
2013-02-20 21:59:00,29.7,12.4,30.22,West,278,0.0,0.0,48,0.00,,---,0.00,VWS V14.00,2013-02-21 02:59:00,
2013-02-20 22:04:00,29.6,13.3,30.22,West,278,0.0,0.0,50,0.00,,---,0.00,VWS V14.00,2013-02-21 03:04:00,
2013-02-20 22:09:00,29.5,13.6,30.21,West,277,0.0,0.0,51,0.00,,---,0.00,VWS V14.00,2013-02-21 03:09:00,
2013-02-20 22:14:00,29.5,13.2,30.22,West,277,0.0,0.0,50,0.00,,---,0.00,VWS V14.00,2013-02-21 03:14:00,
2013-02-20 22:19:00,29.4,13.1,30.22,West,278,0.0,1.0,50,0.00,,---,0.00,VWS V14.00,2013-02-21 03:19:00,
2013-02-20 22:24:00,29.4,12.6,30.22,West,277,0.0,1.0,49,0.00,,---,0.00,VWS V14.00,2013-02-21 03:24:00,
2013-02-20 22:29:00,29.3,13.4,30.22,West,277,0.0,1.0,51,0.00,,---,0.00,VWS V14.00,2013-02-21 03:29:00,
2013-02-20 22:34:00,29.3,14.3,30.22,West,278,0.0,1.0,53,0.00,,---,0.00,VWS V14.00,2013-02-21 03:34:00,
2013-02-20 22:39:00,29.2,13.8,30.22,West,277,0.0,0.0,52,0.00,,---,0.00,VWS V14.00,2013-02-21 03:39:00,
2013-02-20 22:44:00,29.1,14.1,30.22,West,277,0.0,0.0,53,0.00,,---,0.00,VWS V14.00,2013-02-21 03:44:00,
2013-02-20 22:49:00,29.0,14.0,30.22,West,278,0.0,0.0,53,0.00,,---,0.00,VWS V14.00,2013-02-21 03:49:00,
2013-02-20 22:54:00,28.9,13.9,30.22,West,278,0.0,0.0,53,0.00,,---,0.00,VWS V14.00,2013-02-21 03:54:00,
2013-02-20 22:59:00,28.8,13.8,30.22,West,278,0.0,0.0,53,0.00,,---,0.00,VWS V14.00,2013-02-21 03:59:00,
2013-02-20 23:04:00,28.7,13.3,30.21,West,277,0.0,0.0,52,0.00,,---,0.00,VWS V14.00,2013-02-21 04:04:00,
2013-02-20 23:09:00,28.5,13.6,30.21,West,277,0.0,0.0,53,0.00,,---,0.00,VWS V14.00,2013-02-21 04:09:00,
2013-02-20 23:14:00,28.4,13.5,30.20,West,278,0.0,0.0,53,0.00,,---,0.00,VWS V14.00,2013-02-21 04:14:00,
2013-02-20 23:19:00,28.3,13.8,30.20,West,278,0.0,0.0,54,0.00,,---,0.00,VWS V14.00,2013-02-21 04:19:00,
2013-02-20 23:24:00,28.2,14.1,30.20,West,277,0.0,0.0,55,0.00,,---,0.00,VWS V14.00,2013-02-21 04:24:00,
2013-02-20 23:29:00,28.1,14.0,30.20,West,278,0.0,0.0,55,0.00,,---,0.00,VWS V14.00,2013-02-21 04:29:00,
2013-02-20 23:34:00,28.1,14.0,30.20,West,277,0.0,0.0,55,0.00,,---,0.00,VWS V14.00,2013-02-21 04:34:00,
2013-02-20 23:39:00,28.1,14.0,30.20,West,278,0.0,0.0,55,0.00,,---,0.00,VWS V14.00,2013-02-21 04:39:00,
2013-02-20 23:44:00,28.1,14.0,30.20,West,278,0.0,0.0,55,0.00,,---,0.00,VWS V14.00,2013-02-21 04:44:00,
2013-02-20 23:49:00,28.1,14.0,30.20,West,278,0.0,0.0,55,0.00,,---,0.00,VWS V14.00,2013-02-21 04:49:00,
2013-02-20 23:54:00,28.1,14.4,30.20,West,278,0.0,0.0,56,0.00,,---,0.00,VWS V14.00,2013-02-21 04:54:00,
2013-02-20 23:59:00,28.0,15.1,30.19,West,278,0.0,0.0,58,0.00,,---,0.00,VWS V14.00,2013-02-21 04:59:00,